sensor_id;sensor_type;location;lat;lon;timestamp;temperature;humidity
6930;DHT22;3504;52.616;13.238;2022-07-09T00:03:08;14.65;75.98
6930;DHT22;3504;52.616;13.238;2022-07-09T00:08:09;14.54;76.23
6930;DHT22;3504;52.616;13.238;2022-07-09T00:13:11;14.45;76.35
6930;DHT22;3504;52.616;13.238;2022-07-09T00:18:11;14.41;76.23
6930;DHT22;3504;52.616;13.238;2022-07-09T00:23:13;14.34;76.14
6930;DHT22;3504;52.616;13.238;2022-07-09T00:28:14;14.24;76.21
6930;DHT22;3504;52.616;13.238;2022-07-09T00:33:15;14.16;76.74
6930;DHT22;3504;52.616;13.238;2022-07-09T00:38:16;14.13;76.78
6930;DHT22;3504;52.616;13.238;2022-07-09T00:43:22;14.12;76.66
6930;DHT22;3504;52.616;13.238;2022-07-09T00:48:23;14.03;76.71
6930;DHT22;3504;52.616;13.238;2022-07-09T00:53:25;14.03;76.71
6930;DHT22;3504;52.616;13.238;2022-07-09T00:58:26;13.95;77.18
6930;DHT22;3504;52.616;13.238;2022-07-09T01:03:29;13.92;76.99
6930;DHT22;3504;52.616;13.238;2022-07-09T01:08:29;13.86;76.88
6930;DHT22;3504;52.616;13.238;2022-07-09T01:13:31;13.83;77.00
6930;DHT22;3504;52.616;13.238;2022-07-09T01:18:32;13.73;77.57
6930;DHT22;3504;52.616;13.238;2022-07-09T01:23:34;13.73;77.60
6930;DHT22;3504;52.616;13.238;2022-07-09T01:28:34;13.71;77.64
6930;DHT22;3504;52.616;13.238;2022-07-09T01:33:37;13.67;77.85
6930;DHT22;3504;52.616;13.238;2022-07-09T01:38:37;13.56;77.93
6930;DHT22;3504;52.616;13.238;2022-07-09T01:43:39;13.52;77.98
6930;DHT22;3504;52.616;13.238;2022-07-09T01:48:40;13.46;78.07
6930;DHT22;3504;52.616;13.238;2022-07-09T01:53:43;13.42;78.81
6930;DHT22;3504;52.616;13.238;2022-07-09T01:58:45;13.32;79.00
6930;DHT22;3504;52.616;13.238;2022-07-09T02:03:47;13.30;78.85
6930;DHT22;3504;52.616;13.238;2022-07-09T02:08:48;13.25;78.77
6930;DHT22;3504;52.616;13.238;2022-07-09T02:13:49;13.22;78.71
6930;DHT22;3504;52.616;13.238;2022-07-09T02:18:50;13.24;78.74
6930;DHT22;3504;52.616;13.238;2022-07-09T02:23:54;13.24;79.00
6930;DHT22;3504;52.616;13.238;2022-07-09T02:28:59;13.24;78.74
6930;DHT22;3504;52.616;13.238;2022-07-09T02:34:01;13.30;80.01
6930;DHT22;3504;52.616;13.238;2022-07-09T02:39:02;13.31;80.55
6930;DHT22;3504;52.616;13.238;2022-07-09T02:44:04;13.38;79.98
6930;DHT22;3504;52.616;13.238;2022-07-09T02:49:04;13.45;79.85
6930;DHT22;3504;52.616;13.238;2022-07-09T02:54:06;13.53;79.36
6930;DHT22;3504;52.616;13.238;2022-07-09T02:59:06;13.58;79.29
6930;DHT22;3504;52.616;13.238;2022-07-09T03:04:08;13.61;79.08
6930;DHT22;3504;52.616;13.238;2022-07-09T03:09:09;13.65;79.19
6930;DHT22;3504;52.616;13.238;2022-07-09T03:14:10;13.67;79.41
6930;DHT22;3504;52.616;13.238;2022-07-09T03:19:11;13.76;78.87
6930;DHT22;3504;52.616;13.238;2022-07-09T03:24:13;13.83;78.78
6930;DHT22;3504;52.616;13.238;2022-07-09T03:29:13;13.86;78.99
6930;DHT22;3504;52.616;13.238;2022-07-09T03:34:15;13.89;78.99
6930;DHT22;3504;52.616;13.238;2022-07-09T03:39:16;13.99;79.06
6930;DHT22;3504;52.616;13.238;2022-07-09T03:44:17;14.00;78.31
6930;DHT22;3504;52.616;13.238;2022-07-09T03:49:17;14.07;78.06
6930;DHT22;3504;52.616;13.238;2022-07-09T03:54:19;14.13;77.97
6930;DHT22;3504;52.616;13.238;2022-07-09T03:59:20;14.14;78.07
6930;DHT22;3504;52.616;13.238;2022-07-09T04:04:22;14.18;78.06
6930;DHT22;3504;52.616;13.238;2022-07-09T04:09:22;14.23;77.60
6930;DHT22;3504;52.616;13.238;2022-07-09T04:14:24;14.31;77.42
6930;DHT22;3504;52.616;13.238;2022-07-09T04:19:24;14.37;77.22
6930;DHT22;3504;52.616;13.238;2022-07-09T04:24:26;14.45;77.37
6930;DHT22;3504;52.616;13.238;2022-07-09T04:29:27;14.47;77.82
6930;DHT22;3504;52.616;13.238;2022-07-09T04:34:28;14.48;77.21
6930;DHT22;3504;52.616;13.238;2022-07-09T04:39:29;14.51;77.76
6930;DHT22;3504;52.616;13.238;2022-07-09T04:44:31;14.60;77.85
6930;DHT22;3504;52.616;13.238;2022-07-09T04:49:31;14.60;77.60
6930;DHT22;3504;52.616;13.238;2022-07-09T04:54:33;14.68;77.89
6930;DHT22;3504;52.616;13.238;2022-07-09T04:59:33;14.74;78.32
6930;DHT22;3504;52.616;13.238;2022-07-09T05:04:36;14.81;78.41
6930;DHT22;3504;52.616;13.238;2022-07-09T05:09:36;14.85;78.57
6930;DHT22;3504;52.616;13.238;2022-07-09T05:14:38;14.91;78.50
6930;DHT22;3504;52.616;13.238;2022-07-09T05:19:39;15.06;78.37
6930;DHT22;3504;52.616;13.238;2022-07-09T05:24:41;15.18;78.14
6930;DHT22;3504;52.616;13.238;2022-07-09T05:29:42;15.29;77.65
6930;DHT22;3504;52.616;13.238;2022-07-09T05:34:44;15.35;78.02
6930;DHT22;3504;52.616;13.238;2022-07-09T05:39:44;15.47;77.79
6930;DHT22;3504;52.616;13.238;2022-07-09T05:44:46;15.75;77.26
6930;DHT22;3504;52.616;13.238;2022-07-09T05:49:46;15.91;76.38
6930;DHT22;3504;52.616;13.238;2022-07-09T05:54:48;15.97;76.20
6930;DHT22;3504;52.616;13.238;2022-07-09T05:59:49;16.01;75.68
6930;DHT22;3504;52.616;13.238;2022-07-09T06:04:51;16.05;75.74
6930;DHT22;3504;52.616;13.238;2022-07-09T06:09:51;16.07;75.09
6930;DHT22;3504;52.616;13.238;2022-07-09T06:14:53;16.11;74.96
6930;DHT22;3504;52.616;13.238;2022-07-09T06:19:54;16.19;74.44
6930;DHT22;3504;52.616;13.238;2022-07-09T06:24:55;16.22;74.68
6930;DHT22;3504;52.616;13.238;2022-07-09T06:29:56;16.28;74.33
6930;DHT22;3504;52.616;13.238;2022-07-09T06:34:58;16.53;74.28
6930;DHT22;3504;52.616;13.238;2022-07-09T06:39:58;16.70;73.52
6930;DHT22;3504;52.616;13.238;2022-07-09T06:45:00;16.90;73.17
6930;DHT22;3504;52.616;13.238;2022-07-09T06:50:01;17.06;72.11
6930;DHT22;3504;52.616;13.238;2022-07-09T06:55:03;17.20;72.33
6930;DHT22;3504;52.616;13.238;2022-07-09T07:00:05;17.34;71.92
6930;DHT22;3504;52.616;13.238;2022-07-09T07:05:08;17.35;71.34
6930;DHT22;3504;52.616;13.238;2022-07-09T07:10:09;17.35;71.34
6930;DHT22;3504;52.616;13.238;2022-07-09T07:15:09;17.34;70.82
6930;DHT22;3504;52.616;13.238;2022-07-09T07:20:10;17.30;72.17
6930;DHT22;3504;52.616;13.238;2022-07-09T07:25:12;17.39;72.12
6930;DHT22;3504;52.616;13.238;2022-07-09T07:30:12;17.59;71.44
6930;DHT22;3504;52.616;13.238;2022-07-09T07:35:14;17.79;72.00
6930;DHT22;3504;52.616;13.238;2022-07-09T07:40:15;17.75;70.71
6930;DHT22;3504;52.616;13.238;2022-07-09T07:45:16;17.52;71.79
6930;DHT22;3504;52.616;13.238;2022-07-09T07:50:17;17.52;71.75
6930;DHT22;3504;52.616;13.238;2022-07-09T07:55:19;17.48;72.10
6930;DHT22;3504;52.616;13.238;2022-07-09T08:00:19;17.45;71.36
6930;DHT22;3504;52.616;13.238;2022-07-09T08:05:21;17.61;71.72
6930;DHT22;3504;52.616;13.238;2022-07-09T08:10:21;17.86;71.72
6930;DHT22;3504;52.616;13.238;2022-07-09T08:15:22;17.93;71.24
6930;DHT22;3504;52.616;13.238;2022-07-09T08:20:23;18.02;71.73
6930;DHT22;3504;52.616;13.238;2022-07-09T08:25:25;18.09;70.71
6930;DHT22;3504;52.616;13.238;2022-07-09T08:30:25;18.17;71.61
6930;DHT22;3504;52.616;13.238;2022-07-09T08:35:27;18.33;70.77
6930;DHT22;3504;52.616;13.238;2022-07-09T08:40:28;18.34;69.69
6930;DHT22;3504;52.616;13.238;2022-07-09T08:45:30;18.33;70.44
6930;DHT22;3504;52.616;13.238;2022-07-09T08:50:31;18.14;70.01
6930;DHT22;3504;52.616;13.238;2022-07-09T08:55:33;18.00;70.89
6930;DHT22;3504;52.616;13.238;2022-07-09T09:00:33;17.89;72.40
6930;DHT22;3504;52.616;13.238;2022-07-09T09:05:35;17.89;74.44
6930;DHT22;3504;52.616;13.238;2022-07-09T09:10:36;17.78;75.93
6930;DHT22;3504;52.616;13.238;2022-07-09T09:15:36;17.68;76.98
6930;DHT22;3504;52.616;13.238;2022-07-09T09:20:38;17.51;78.52
6930;DHT22;3504;52.616;13.238;2022-07-09T09:25:46;17.48;79.76
6930;DHT22;3504;52.616;13.238;2022-07-09T09:30:47;17.55;79.73
6930;DHT22;3504;52.616;13.238;2022-07-09T09:35:48;17.76;80.73
6930;DHT22;3504;52.616;13.238;2022-07-09T09:40:49;18.09;80.70
6930;DHT22;3504;52.616;13.238;2022-07-09T09:45:52;18.16;78.79
6930;DHT22;3504;52.616;13.238;2022-07-09T09:50:59;18.28;77.65
6930;DHT22;3504;52.616;13.238;2022-07-09T09:56:03;18.47;78.31
6930;DHT22;3504;52.616;13.238;2022-07-09T10:01:03;18.79;76.98
6930;DHT22;3504;52.616;13.238;2022-07-09T10:06:06;19.05;76.46
6930;DHT22;3504;52.616;13.238;2022-07-09T10:11:07;19.25;75.54
6930;DHT22;3504;52.616;13.238;2022-07-09T10:16:07;19.57;75.34
6930;DHT22;3504;52.616;13.238;2022-07-09T10:21:08;19.92;74.91
6930;DHT22;3504;52.616;13.238;2022-07-09T10:26:09;20.29;69.95
6930;DHT22;3504;52.616;13.238;2022-07-09T10:31:11;20.80;68.29
6930;DHT22;3504;52.616;13.238;2022-07-09T10:36:17;21.21;66.11
6930;DHT22;3504;52.616;13.238;2022-07-09T10:41:22;21.88;64.44
6930;DHT22;3504;52.616;13.238;2022-07-09T10:46:25;22.08;62.13
6930;DHT22;3504;52.616;13.238;2022-07-09T10:51:26;21.98;63.83
6930;DHT22;3504;52.616;13.238;2022-07-09T10:56:28;21.78;60.81
6930;DHT22;3504;52.616;13.238;2022-07-09T11:01:29;22.29;62.33
6930;DHT22;3504;52.616;13.238;2022-07-09T11:06:31;22.15;58.65
6930;DHT22;3504;52.616;13.238;2022-07-09T11:11:31;21.79;59.92
6930;DHT22;3504;52.616;13.238;2022-07-09T11:16:32;21.88;59.10
6930;DHT22;3504;52.616;13.238;2022-07-09T11:21:33;21.74;58.41
6930;DHT22;3504;52.616;13.238;2022-07-09T11:26:35;21.51;59.53
6930;DHT22;3504;52.616;13.238;2022-07-09T11:31:36;21.66;60.84
6930;DHT22;3504;52.616;13.238;2022-07-09T11:36:46;21.53;58.97
6930;DHT22;3504;52.616;13.238;2022-07-09T11:41:47;21.33;60.42
6930;DHT22;3504;52.616;13.238;2022-07-09T11:52:24;21.21;61.33
6930;DHT22;3504;52.616;13.238;2022-07-09T11:57:31;21.08;61.04
6930;DHT22;3504;52.616;13.238;2022-07-09T12:02:34;21.06;60.94
6930;DHT22;3504;52.616;13.238;2022-07-09T12:07:36;20.89;62.19
6930;DHT22;3504;52.616;13.238;2022-07-09T12:12:37;20.73;61.11
6930;DHT22;3504;52.616;13.238;2022-07-09T12:17:39;20.68;62.84
6930;DHT22;3504;52.616;13.238;2022-07-09T12:22:40;20.77;63.63
6930;DHT22;3504;52.616;13.238;2022-07-09T12:27:41;20.86;65.26
6930;DHT22;3504;52.616;13.238;2022-07-09T12:32:43;20.73;65.09
6930;DHT22;3504;52.616;13.238;2022-07-09T12:37:45;20.68;66.59
6930;DHT22;3504;52.616;13.238;2022-07-09T12:42:45;20.71;65.13
6930;DHT22;3504;52.616;13.238;2022-07-09T12:47:47;20.69;66.62
6930;DHT22;3504;52.616;13.238;2022-07-09T12:52:47;20.49;69.65
6930;DHT22;3504;52.616;13.238;2022-07-09T12:57:50;20.29;71.24
6930;DHT22;3504;52.616;13.238;2022-07-09T13:02:50;20.53;72.52
6930;DHT22;3504;52.616;13.238;2022-07-09T13:07:51;20.65;71.21
6930;DHT22;3504;52.616;13.238;2022-07-09T13:12:51;20.63;70.64
6930;DHT22;3504;52.616;13.238;2022-07-09T13:17:53;20.52;69.43
6930;DHT22;3504;52.616;13.238;2022-07-09T13:22:54;20.57;69.66
6930;DHT22;3504;52.616;13.238;2022-07-09T13:27:56;20.62;68.53
6930;DHT22;3504;52.616;13.238;2022-07-09T13:32:57;20.77;66.95
6930;DHT22;3504;52.616;13.238;2022-07-09T13:37:58;20.87;66.15
6930;DHT22;3504;52.616;13.238;2022-07-09T13:42:59;21.06;64.97
6930;DHT22;3504;52.616;13.238;2022-07-09T13:48:00;21.11;63.79
6930;DHT22;3504;52.616;13.238;2022-07-09T13:53:01;21.21;63.39
6930;DHT22;3504;52.616;13.238;2022-07-09T13:58:03;21.40;63.34
6930;DHT22;3504;52.616;13.238;2022-07-09T14:03:03;21.50;61.89
6930;DHT22;3504;52.616;13.238;2022-07-09T14:08:05;21.31;62.33
6930;DHT22;3504;52.616;13.238;2022-07-09T14:13:06;21.28;62.67
6930;DHT22;3504;52.616;13.238;2022-07-09T14:18:07;21.28;64.69
6930;DHT22;3504;52.616;13.238;2022-07-09T14:23:08;21.27;65.01
6930;DHT22;3504;52.616;13.238;2022-07-09T14:28:10;21.26;60.68
6930;DHT22;3504;52.616;13.238;2022-07-09T14:33:11;21.35;60.70
6930;DHT22;3504;52.616;13.238;2022-07-09T14:38:13;21.53;58.68
6930;DHT22;3504;52.616;13.238;2022-07-09T14:43:15;21.81;56.14
6930;DHT22;3504;52.616;13.238;2022-07-09T14:48:17;21.89;55.54
6930;DHT22;3504;52.616;13.238;2022-07-09T14:53:17;21.47;55.58
6930;DHT22;3504;52.616;13.238;2022-07-09T14:58:19;21.65;58.33
6930;DHT22;3504;52.616;13.238;2022-07-09T15:03:20;21.59;56.71
6930;DHT22;3504;52.616;13.238;2022-07-09T15:08:22;21.37;57.40
6930;DHT22;3504;52.616;13.238;2022-07-09T15:13:22;21.61;57.62
6930;DHT22;3504;52.616;13.238;2022-07-09T15:18:26;21.43;57.82
6930;DHT22;3504;52.616;13.238;2022-07-09T15:23:27;21.51;58.97
6930;DHT22;3504;52.616;13.238;2022-07-09T15:28:29;21.68;59.41
6930;DHT22;3504;52.616;13.238;2022-07-09T15:33:29;21.71;60.24
6930;DHT22;3504;52.616;13.238;2022-07-09T15:38:31;21.66;60.44
6930;DHT22;3504;52.616;13.238;2022-07-09T15:43:32;21.62;60.37
6930;DHT22;3504;52.616;13.238;2022-07-09T15:48:34;21.61;60.35
6930;DHT22;3504;52.616;13.238;2022-07-09T15:53:34;21.54;60.25
6930;DHT22;3504;52.616;13.238;2022-07-09T15:58:36;21.51;60.33
6930;DHT22;3504;52.616;13.238;2022-07-09T16:03:37;21.55;60.48
6930;DHT22;3504;52.616;13.238;2022-07-09T16:08:38;22.02;60.54
6930;DHT22;3504;52.616;13.238;2022-07-09T16:13:39;22.27;60.43
6930;DHT22;3504;52.616;13.238;2022-07-09T16:18:41;21.92;61.09
6930;DHT22;3504;52.616;13.238;2022-07-09T16:23:41;21.86;61.94
6930;DHT22;3504;52.616;13.238;2022-07-09T16:28:43;21.79;61.93
6930;DHT22;3504;52.616;13.238;2022-07-09T16:33:44;22.05;62.86
6930;DHT22;3504;52.616;13.238;2022-07-09T16:38:46;22.17;60.67
6930;DHT22;3504;52.616;13.238;2022-07-09T16:43:47;22.12;60.09
6930;DHT22;3504;52.616;13.238;2022-07-09T16:48:48;21.75;59.29
6930;DHT22;3504;52.616;13.238;2022-07-09T16:53:49;21.64;59.39
6930;DHT22;3504;52.616;13.238;2022-07-09T16:58:54;21.65;59.93
6930;DHT22;3504;52.616;13.238;2022-07-09T17:03:55;21.68;60.10
6930;DHT22;3504;52.616;13.238;2022-07-09T17:08:56;21.40;60.43
6930;DHT22;3504;52.616;13.238;2022-07-09T17:13:57;21.30;60.24
6930;DHT22;3504;52.616;13.238;2022-07-09T17:18:59;21.24;58.52
6930;DHT22;3504;52.616;13.238;2022-07-09T17:23:59;21.04;59.32
6930;DHT22;3504;52.616;13.238;2022-07-09T17:29:01;20.57;61.02
6930;DHT22;3504;52.616;13.238;2022-07-09T17:34:02;20.32;62.99
6930;DHT22;3504;52.616;13.238;2022-07-09T17:39:04;20.04;63.66
6930;DHT22;3504;52.616;13.238;2022-07-09T17:44:04;19.98;64.57
6930;DHT22;3504;52.616;13.238;2022-07-09T17:49:06;19.80;64.99
6930;DHT22;3504;52.616;13.238;2022-07-09T17:54:06;19.80;65.51
6930;DHT22;3504;52.616;13.238;2022-07-09T17:59:09;19.73;66.00
6930;DHT22;3504;52.616;13.238;2022-07-09T18:04:09;19.64;66.04
6930;DHT22;3504;52.616;13.238;2022-07-09T18:09:13;19.61;66.35
6930;DHT22;3504;52.616;13.238;2022-07-09T18:14:13;19.60;65.58
6930;DHT22;3504;52.616;13.238;2022-07-09T18:19:15;19.54;66.48
6930;DHT22;3504;52.616;13.238;2022-07-09T18:24:16;19.45;66.45
6930;DHT22;3504;52.616;13.238;2022-07-09T18:29:17;19.32;66.67
6930;DHT22;3504;52.616;13.238;2022-07-09T18:34:18;19.18;67.72
6930;DHT22;3504;52.616;13.238;2022-07-09T18:39:20;19.06;68.52
6930;DHT22;3504;52.616;13.238;2022-07-09T18:44:21;18.95;68.03
6930;DHT22;3504;52.616;13.238;2022-07-09T18:49:23;18.84;68.42
6930;DHT22;3504;52.616;13.238;2022-07-09T18:54:23;18.75;68.41
6930;DHT22;3504;52.616;13.238;2022-07-09T18:59:25;18.68;67.83
6930;DHT22;3504;52.616;13.238;2022-07-09T19:04:25;18.61;67.70
6930;DHT22;3504;52.616;13.238;2022-07-09T19:09:28;18.63;66.75
6930;DHT22;3504;52.616;13.238;2022-07-09T19:14:30;18.51;66.25
6930;DHT22;3504;52.616;13.238;2022-07-09T19:19:31;18.50;65.86
6930;DHT22;3504;52.616;13.238;2022-07-09T19:24:32;18.41;64.87
6930;DHT22;3504;52.616;13.238;2022-07-09T19:29:34;18.30;63.86
6930;DHT22;3504;52.616;13.238;2022-07-09T19:34:34;18.24;61.90
6930;DHT22;3504;52.616;13.238;2022-07-09T19:39:36;18.09;61.68
6930;DHT22;3504;52.616;13.238;2022-07-09T19:44:37;17.90;59.74
6930;DHT22;3504;52.616;13.238;2022-07-09T19:49:39;17.83;61.28
6930;DHT22;3504;52.616;13.238;2022-07-09T19:54:39;17.72;61.16
6930;DHT22;3504;52.616;13.238;2022-07-09T19:59:41;17.61;61.45
6930;DHT22;3504;52.616;13.238;2022-07-09T20:04:41;17.49;61.13
6930;DHT22;3504;52.616;13.238;2022-07-09T20:09:43;17.34;60.33
6930;DHT22;3504;52.616;13.238;2022-07-09T20:14:44;17.18;59.24
6930;DHT22;3504;52.616;13.238;2022-07-09T20:19:47;17.13;59.45
6930;DHT22;3504;52.616;13.238;2022-07-09T20:24:48;17.00;58.76
6930;DHT22;3504;52.616;13.238;2022-07-09T20:29:50;16.90;59.36
6930;DHT22;3504;52.616;13.238;2022-07-09T20:34:50;16.80;58.39
6930;DHT22;3504;52.616;13.238;2022-07-09T20:39:52;16.73;57.79
6930;DHT22;3504;52.616;13.238;2022-07-09T20:44:52;16.63;57.73
6930;DHT22;3504;52.616;13.238;2022-07-09T20:49:54;16.55;57.96
6930;DHT22;3504;52.616;13.238;2022-07-09T20:54:54;16.36;57.32
6930;DHT22;3504;52.616;13.238;2022-07-09T20:59:56;16.28;58.01
6930;DHT22;3504;52.616;13.238;2022-07-09T21:04:57;16.22;58.93
6930;DHT22;3504;52.616;13.238;2022-07-09T21:09:59;16.15;58.74
6930;DHT22;3504;52.616;13.238;2022-07-09T21:15:00;16.01;59.48
6930;DHT22;3504;52.616;13.238;2022-07-09T21:20:00;15.94;59.81
6930;DHT22;3504;52.616;13.238;2022-07-09T21:25:01;15.81;59.97
6930;DHT22;3504;52.616;13.238;2022-07-09T21:30:03;15.80;60.67
6930;DHT22;3504;52.616;13.238;2022-07-09T21:35:04;15.77;60.52
6930;DHT22;3504;52.616;13.238;2022-07-09T21:40:06;15.66;61.18
6930;DHT22;3504;52.616;13.238;2022-07-09T21:45:08;15.66;61.66
6930;DHT22;3504;52.616;13.238;2022-07-09T21:50:10;15.53;61.63
6930;DHT22;3504;52.616;13.238;2022-07-09T21:55:12;15.42;62.10
6930;DHT22;3504;52.616;13.238;2022-07-09T22:00:20;15.35;62.35
6930;DHT22;3504;52.616;13.238;2022-07-09T22:05:23;15.30;62.60
6930;DHT22;3504;52.616;13.238;2022-07-09T22:10:24;15.27;62.86
6930;DHT22;3504;52.616;13.238;2022-07-09T22:15:25;15.19;63.14
6930;DHT22;3504;52.616;13.238;2022-07-09T22:20:27;15.13;63.55
6930;DHT22;3504;52.616;13.238;2022-07-09T22:25:27;15.08;63.42
6930;DHT22;3504;52.616;13.238;2022-07-09T22:30:29;14.98;63.80
6930;DHT22;3504;52.616;13.238;2022-07-09T22:35:30;14.89;64.54
6930;DHT22;3504;52.616;13.238;2022-07-09T22:40:31;14.84;64.46
6930;DHT22;3504;52.616;13.238;2022-07-09T22:45:32;14.72;65.27
6930;DHT22;3504;52.616;13.238;2022-07-09T22:50:34;14.69;65.23
6930;DHT22;3504;52.616;13.238;2022-07-09T22:55:34;14.65;65.50
6930;DHT22;3504;52.616;13.238;2022-07-09T23:00:36;14.61;65.70
6930;DHT22;3504;52.616;13.238;2022-07-09T23:05:36;14.60;65.83
6930;DHT22;3504;52.616;13.238;2022-07-09T23:10:38;14.54;66.03
6930;DHT22;3504;52.616;13.238;2022-07-09T23:15:39;14.42;66.17
6930;DHT22;3504;52.616;13.238;2022-07-09T23:20:40;14.34;66.28
6930;DHT22;3504;52.616;13.238;2022-07-09T23:25:41;14.30;66.85
6930;DHT22;3504;52.616;13.238;2022-07-09T23:30:43;14.16;67.31
6930;DHT22;3504;52.616;13.238;2022-07-09T23:35:43;14.10;67.46
6930;DHT22;3504;52.616;13.238;2022-07-09T23:40:45;14.04;68.06
6930;DHT22;3504;52.616;13.238;2022-07-09T23:45:45;14.09;68.04
6930;DHT22;3504;52.616;13.238;2022-07-09T23:50:46;14.10;68.33
6930;DHT22;3504;52.616;13.238;2022-07-09T23:55:47;14.13;68.02
